sensor_id;sensor_type;location;lat;lon;timestamp;temperature;humidity
10536;DHT22;5316;49.538;8.352;2023-12-07T00:00:45;3.30;99.90
10536;DHT22;5316;49.538;8.352;2023-12-07T00:03:18;3.30;99.90
10536;DHT22;5316;49.538;8.352;2023-12-07T00:05:53;3.30;99.90
10536;DHT22;5316;49.538;8.352;2023-12-07T00:08:27;3.30;99.90
10536;DHT22;5316;49.538;8.352;2023-12-07T00:11:02;3.20;99.90
10536;DHT22;5316;49.538;8.352;2023-12-07T00:13:31;3.20;99.90
10536;DHT22;5316;49.538;8.352;2023-12-07T00:16:05;3.20;99.90
10536;DHT22;5316;49.538;8.352;2023-12-07T00:18:35;3.10;99.90
10536;DHT22;5316;49.538;8.352;2023-12-07T00:21:02;3.10;99.90
10536;DHT22;5316;49.538;8.352;2023-12-07T00:23:31;3.10;99.90
10536;DHT22;5316;49.538;8.352;2023-12-07T00:26:01;3.00;99.90
10536;DHT22;5316;49.538;8.352;2023-12-07T00:28:28;3.00;99.90
10536;DHT22;5316;49.538;8.352;2023-12-07T00:30:57;2.90;99.90
10536;DHT22;5316;49.538;8.352;2023-12-07T00:33:27;2.90;99.90
10536;DHT22;5316;49.538;8.352;2023-12-07T00:35:59;2.90;99.90
10536;DHT22;5316;49.538;8.352;2023-12-07T00:38:35;2.80;99.90
10536;DHT22;5316;49.538;8.352;2023-12-07T00:41:06;2.80;99.90
10536;DHT22;5316;49.538;8.352;2023-12-07T00:43:35;2.80;99.90
10536;DHT22;5316;49.538;8.352;2023-12-07T00:46:02;2.80;99.90
10536;DHT22;5316;49.538;8.352;2023-12-07T00:48:38;2.70;99.90
10536;DHT22;5316;49.538;8.352;2023-12-07T00:51:07;2.80;99.90
10536;DHT22;5316;49.538;8.352;2023-12-07T00:53:36;2.70;99.90
10536;DHT22;5316;49.538;8.352;2023-12-07T00:56:12;2.60;99.90
10536;DHT22;5316;49.538;8.352;2023-12-07T00:58:40;2.60;99.90
10536;DHT22;5316;49.538;8.352;2023-12-07T01:01:07;2.60;99.90
10536;DHT22;5316;49.538;8.352;2023-12-07T01:03:37;2.60;99.90
10536;DHT22;5316;49.538;8.352;2023-12-07T01:06:10;2.50;99.90
10536;DHT22;5316;49.538;8.352;2023-12-07T01:08:51;2.60;99.90
10536;DHT22;5316;49.538;8.352;2023-12-07T01:11:26;2.50;99.90
10536;DHT22;5316;49.538;8.352;2023-12-07T01:13:54;2.50;99.90
10536;DHT22;5316;49.538;8.352;2023-12-07T01:16:23;2.50;99.90
10536;DHT22;5316;49.538;8.352;2023-12-07T01:18:53;2.60;99.90
10536;DHT22;5316;49.538;8.352;2023-12-07T01:21:19;2.50;99.90
10536;DHT22;5316;49.538;8.352;2023-12-07T01:23:50;2.60;99.90
10536;DHT22;5316;49.538;8.352;2023-12-07T01:26:22;2.60;99.90
10536;DHT22;5316;49.538;8.352;2023-12-07T01:28:52;2.60;99.90
10536;DHT22;5316;49.538;8.352;2023-12-07T01:31:23;2.60;99.90
10536;DHT22;5316;49.538;8.352;2023-12-07T01:33:57;2.60;99.90
10536;DHT22;5316;49.538;8.352;2023-12-07T01:36:28;2.60;99.90
10536;DHT22;5316;49.538;8.352;2023-12-07T01:38:55;2.60;99.90
10536;DHT22;5316;49.538;8.352;2023-12-07T01:41:27;2.60;99.90
10536;DHT22;5316;49.538;8.352;2023-12-07T01:43:57;2.60;99.90
10536;DHT22;5316;49.538;8.352;2023-12-07T01:46:24;2.60;99.90
10536;DHT22;5316;49.538;8.352;2023-12-07T01:48:55;2.60;99.90
10536;DHT22;5316;49.538;8.352;2023-12-07T01:51:23;2.60;99.90
10536;DHT22;5316;49.538;8.352;2023-12-07T01:53:51;2.60;99.90
10536;DHT22;5316;49.538;8.352;2023-12-07T01:56:24;2.50;99.90
10536;DHT22;5316;49.538;8.352;2023-12-07T01:58:56;2.50;99.90
10536;DHT22;5316;49.538;8.352;2023-12-07T02:01:36;2.40;99.90
10536;DHT22;5316;49.538;8.352;2023-12-07T02:04:03;2.60;99.90
10536;DHT22;5316;49.538;8.352;2023-12-07T02:06:31;2.50;99.90
10536;DHT22;5316;49.538;8.352;2023-12-07T02:08:59;2.30;99.90
10536;DHT22;5316;49.538;8.352;2023-12-07T02:11:27;2.50;99.90
10536;DHT22;5316;49.538;8.352;2023-12-07T02:14:00;2.40;99.90
10536;DHT22;5316;49.538;8.352;2023-12-07T02:16:31;2.40;99.90
10536;DHT22;5316;49.538;8.352;2023-12-07T02:19:05;2.40;99.90
10536;DHT22;5316;49.538;8.352;2023-12-07T02:21:40;2.30;99.90
10536;DHT22;5316;49.538;8.352;2023-12-07T02:24:19;2.30;99.90
10536;DHT22;5316;49.538;8.352;2023-12-07T02:26:49;2.30;99.90
10536;DHT22;5316;49.538;8.352;2023-12-07T02:29:16;2.20;99.90
10536;DHT22;5316;49.538;8.352;2023-12-07T02:31:46;2.20;99.90
10536;DHT22;5316;49.538;8.352;2023-12-07T02:34:13;2.20;99.90
10536;DHT22;5316;49.538;8.352;2023-12-07T02:36:42;2.30;99.90
10536;DHT22;5316;49.538;8.352;2023-12-07T02:39:13;2.20;99.90
10536;DHT22;5316;49.538;8.352;2023-12-07T02:41:41;2.20;99.90
10536;DHT22;5316;49.538;8.352;2023-12-07T02:44:13;2.10;99.90
10536;DHT22;5316;49.538;8.352;2023-12-07T02:46:42;2.10;99.90
10536;DHT22;5316;49.538;8.352;2023-12-07T02:49:09;2.00;99.90
10536;DHT22;5316;49.538;8.352;2023-12-07T02:51:41;2.00;99.90
10536;DHT22;5316;49.538;8.352;2023-12-07T02:54:15;2.00;99.90
10536;DHT22;5316;49.538;8.352;2023-12-07T02:56:42;2.00;99.90
10536;DHT22;5316;49.538;8.352;2023-12-07T02:59:09;2.00;99.90
10536;DHT22;5316;49.538;8.352;2023-12-07T03:01:40;2.00;99.90
10536;DHT22;5316;49.538;8.352;2023-12-07T03:04:10;2.00;99.90
10536;DHT22;5316;49.538;8.352;2023-12-07T03:06:40;2.00;99.90
10536;DHT22;5316;49.538;8.352;2023-12-07T03:09:07;1.90;99.90
10536;DHT22;5316;49.538;8.352;2023-12-07T03:11:34;2.00;99.90
10536;DHT22;5316;49.538;8.352;2023-12-07T03:14:01;2.00;99.90
10536;DHT22;5316;49.538;8.352;2023-12-07T03:16:30;2.00;99.90
10536;DHT22;5316;49.538;8.352;2023-12-07T03:19:00;1.90;99.90
10536;DHT22;5316;49.538;8.352;2023-12-07T03:21:29;1.90;99.90
10536;DHT22;5316;49.538;8.352;2023-12-07T03:23:58;1.90;99.90
10536;DHT22;5316;49.538;8.352;2023-12-07T03:26:27;1.90;99.90
10536;DHT22;5316;49.538;8.352;2023-12-07T03:29:09;1.90;99.90
10536;DHT22;5316;49.538;8.352;2023-12-07T03:31:43;1.80;99.90
10536;DHT22;5316;49.538;8.352;2023-12-07T03:34:29;1.80;99.90
10536;DHT22;5316;49.538;8.352;2023-12-07T03:37:15;1.80;99.90
10536;DHT22;5316;49.538;8.352;2023-12-07T03:39:49;1.70;99.90
10536;DHT22;5316;49.538;8.352;2023-12-07T03:42:26;1.70;99.90
10536;DHT22;5316;49.538;8.352;2023-12-07T03:45:03;1.70;99.90
10536;DHT22;5316;49.538;8.352;2023-12-07T03:47:37;1.70;99.90
10536;DHT22;5316;49.538;8.352;2023-12-07T03:50:34;1.60;99.90
10536;DHT22;5316;49.538;8.352;2023-12-07T03:53:06;1.60;99.90
10536;DHT22;5316;49.538;8.352;2023-12-07T03:55:50;1.60;99.90
10536;DHT22;5316;49.538;8.352;2023-12-07T03:58:39;1.60;99.90
10536;DHT22;5316;49.538;8.352;2023-12-07T04:01:08;1.60;99.90
10536;DHT22;5316;49.538;8.352;2023-12-07T04:03:35;1.60;99.90
10536;DHT22;5316;49.538;8.352;2023-12-07T04:06:12;1.60;99.90
10536;DHT22;5316;49.538;8.352;2023-12-07T04:08:53;1.50;99.90
10536;DHT22;5316;49.538;8.352;2023-12-07T04:11:47;1.50;99.90
10536;DHT22;5316;49.538;8.352;2023-12-07T04:14:39;1.50;99.90
10536;DHT22;5316;49.538;8.352;2023-12-07T04:17:22;1.50;99.90
10536;DHT22;5316;49.538;8.352;2023-12-07T04:19:54;1.40;99.90
10536;DHT22;5316;49.538;8.352;2023-12-07T04:22:32;1.40;99.90
10536;DHT22;5316;49.538;8.352;2023-12-07T04:25:08;1.40;99.90
10536;DHT22;5316;49.538;8.352;2023-12-07T04:27:35;1.40;99.90
10536;DHT22;5316;49.538;8.352;2023-12-07T04:30:17;1.30;99.90
10536;DHT22;5316;49.538;8.352;2023-12-07T04:33:06;1.30;99.90
10536;DHT22;5316;49.538;8.352;2023-12-07T04:35:52;1.30;99.90
10536;DHT22;5316;49.538;8.352;2023-12-07T04:38:22;1.30;99.90
10536;DHT22;5316;49.538;8.352;2023-12-07T04:40:54;1.20;99.90
10536;DHT22;5316;49.538;8.352;2023-12-07T04:43:55;1.20;99.90
10536;DHT22;5316;49.538;8.352;2023-12-07T04:46:27;1.20;99.90
10536;DHT22;5316;49.538;8.352;2023-12-07T04:48:57;1.20;99.90
10536;DHT22;5316;49.538;8.352;2023-12-07T04:51:33;1.20;99.90
10536;DHT22;5316;49.538;8.352;2023-12-07T04:54:26;1.20;99.90
10536;DHT22;5316;49.538;8.352;2023-12-07T04:57:27;1.20;99.90
10536;DHT22;5316;49.538;8.352;2023-12-07T04:59:59;1.20;99.90
10536;DHT22;5316;49.538;8.352;2023-12-07T05:02:40;1.20;99.90
10536;DHT22;5316;49.538;8.352;2023-12-07T05:05:31;1.20;99.90
10536;DHT22;5316;49.538;8.352;2023-12-07T05:08:15;1.20;99.90
10536;DHT22;5316;49.538;8.352;2023-12-07T05:10:51;1.20;99.90
10536;DHT22;5316;49.538;8.352;2023-12-07T05:13:34;1.10;99.90
10536;DHT22;5316;49.538;8.352;2023-12-07T05:16:16;1.10;99.90
10536;DHT22;5316;49.538;8.352;2023-12-07T05:18:52;1.10;99.90
10536;DHT22;5316;49.538;8.352;2023-12-07T05:21:28;1.10;99.90
10536;DHT22;5316;49.538;8.352;2023-12-07T05:24:12;1.10;99.90
10536;DHT22;5316;49.538;8.352;2023-12-07T05:26:54;1.00;99.90
10536;DHT22;5316;49.538;8.352;2023-12-07T05:29:31;1.10;99.90
10536;DHT22;5316;49.538;8.352;2023-12-07T05:32:17;1.00;99.90
10536;DHT22;5316;49.538;8.352;2023-12-07T05:34:53;1.10;99.90
10536;DHT22;5316;49.538;8.352;2023-12-07T05:37:41;1.00;99.90
10536;DHT22;5316;49.538;8.352;2023-12-07T05:40:33;1.00;99.90
10536;DHT22;5316;49.538;8.352;2023-12-07T05:43:05;1.00;99.90
10536;DHT22;5316;49.538;8.352;2023-12-07T05:45:51;1.00;99.90
10536;DHT22;5316;49.538;8.352;2023-12-07T05:48:28;1.00;99.90
10536;DHT22;5316;49.538;8.352;2023-12-07T05:51:11;1.00;99.90
10536;DHT22;5316;49.538;8.352;2023-12-07T05:53:39;1.00;99.90
10536;DHT22;5316;49.538;8.352;2023-12-07T05:56:09;1.00;99.90
10536;DHT22;5316;49.538;8.352;2023-12-07T05:58:45;1.00;99.90
10536;DHT22;5316;49.538;8.352;2023-12-07T06:01:26;0.90;99.90
10536;DHT22;5316;49.538;8.352;2023-12-07T06:04:08;0.90;99.90
10536;DHT22;5316;49.538;8.352;2023-12-07T06:06:51;0.90;99.90
10536;DHT22;5316;49.538;8.352;2023-12-07T06:09:31;0.90;99.90
10536;DHT22;5316;49.538;8.352;2023-12-07T06:12:07;0.90;99.90
10536;DHT22;5316;49.538;8.352;2023-12-07T06:14:42;0.80;99.90
10536;DHT22;5316;49.538;8.352;2023-12-07T06:17:13;0.80;99.90
10536;DHT22;5316;49.538;8.352;2023-12-07T06:19:40;0.80;99.90
10536;DHT22;5316;49.538;8.352;2023-12-07T06:22:08;0.70;99.90
10536;DHT22;5316;49.538;8.352;2023-12-07T06:24:37;0.70;99.90
10536;DHT22;5316;49.538;8.352;2023-12-07T06:27:15;0.70;99.90
10536;DHT22;5316;49.538;8.352;2023-12-07T06:29:54;0.60;99.90
10536;DHT22;5316;49.538;8.352;2023-12-07T06:32:22;0.70;99.90
10536;DHT22;5316;49.538;8.352;2023-12-07T06:34:56;0.60;99.90
10536;DHT22;5316;49.538;8.352;2023-12-07T06:37:23;0.70;99.90
10536;DHT22;5316;49.538;8.352;2023-12-07T06:39:55;0.70;99.90
10536;DHT22;5316;49.538;8.352;2023-12-07T06:42:34;0.70;99.90
10536;DHT22;5316;49.538;8.352;2023-12-07T06:45:07;0.70;99.90
10536;DHT22;5316;49.538;8.352;2023-12-07T06:47:57;0.70;99.90
10536;DHT22;5316;49.538;8.352;2023-12-07T06:50:29;0.70;99.90
10536;DHT22;5316;49.538;8.352;2023-12-07T06:53:01;0.70;99.90
10536;DHT22;5316;49.538;8.352;2023-12-07T06:55:32;0.60;99.90
10536;DHT22;5316;49.538;8.352;2023-12-07T06:58:08;0.60;99.90
10536;DHT22;5316;49.538;8.352;2023-12-07T07:00:52;0.70;99.90
10536;DHT22;5316;49.538;8.352;2023-12-07T07:03:22;0.70;99.90
10536;DHT22;5316;49.538;8.352;2023-12-07T07:05:59;0.70;99.90
10536;DHT22;5316;49.538;8.352;2023-12-07T07:08:26;0.70;99.90
10536;DHT22;5316;49.538;8.352;2023-12-07T07:11:08;0.60;99.90
10536;DHT22;5316;49.538;8.352;2023-12-07T07:13:46;0.70;99.90
10536;DHT22;5316;49.538;8.352;2023-12-07T07:16:15;0.60;99.90
10536;DHT22;5316;49.538;8.352;2023-12-07T07:18:58;0.70;99.90
10536;DHT22;5316;49.538;8.352;2023-12-07T07:21:28;0.70;99.90
10536;DHT22;5316;49.538;8.352;2023-12-07T07:24:02;0.70;99.90
10536;DHT22;5316;49.538;8.352;2023-12-07T07:27:16;0.70;99.90
10536;DHT22;5316;49.538;8.352;2023-12-07T07:33:42;1.00;99.90
10536;DHT22;5316;49.538;8.352;2023-12-07T07:39:37;1.20;99.90
10536;DHT22;5316;49.538;8.352;2023-12-07T07:42:34;1.20;99.90
10536;DHT22;5316;49.538;8.352;2023-12-07T07:45:49;1.20;99.90
10536;DHT22;5316;49.538;8.352;2023-12-07T07:48:29;1.30;99.90
10536;DHT22;5316;49.538;8.352;2023-12-07T07:51:25;1.30;99.90
10536;DHT22;5316;49.538;8.352;2023-12-07T07:57:01;1.20;99.90
10536;DHT22;5316;49.538;8.352;2023-12-07T07:59:34;1.30;99.90
10536;DHT22;5316;49.538;8.352;2023-12-07T08:02:24;1.10;99.90
10536;DHT22;5316;49.538;8.352;2023-12-07T08:05:13;1.10;99.90
10536;DHT22;5316;49.538;8.352;2023-12-07T08:07:55;1.20;99.90
10536;DHT22;5316;49.538;8.352;2023-12-07T08:10:51;1.20;99.90
10536;DHT22;5316;49.538;8.352;2023-12-07T08:13:33;1.30;99.90
10536;DHT22;5316;49.538;8.352;2023-12-07T08:16:36;1.30;99.90
10536;DHT22;5316;49.538;8.352;2023-12-07T08:19:54;1.40;99.90
10536;DHT22;5316;49.538;8.352;2023-12-07T08:22:23;1.50;99.90
10536;DHT22;5316;49.538;8.352;2023-12-07T08:25:03;1.60;99.90
10536;DHT22;5316;49.538;8.352;2023-12-07T08:27:31;1.70;99.90
10536;DHT22;5316;49.538;8.352;2023-12-07T08:29:58;1.80;99.90
10536;DHT22;5316;49.538;8.352;2023-12-07T08:32:25;1.80;99.90
10536;DHT22;5316;49.538;8.352;2023-12-07T08:34:52;1.90;99.90
10536;DHT22;5316;49.538;8.352;2023-12-07T08:37:20;1.90;99.90
10536;DHT22;5316;49.538;8.352;2023-12-07T08:39:47;2.00;99.90
10536;DHT22;5316;49.538;8.352;2023-12-07T08:42:14;2.10;99.90
10536;DHT22;5316;49.538;8.352;2023-12-07T08:44:42;2.20;99.90
10536;DHT22;5316;49.538;8.352;2023-12-07T08:47:09;2.20;99.90
10536;DHT22;5316;49.538;8.352;2023-12-07T08:49:35;2.30;99.90
10536;DHT22;5316;49.538;8.352;2023-12-07T08:52:03;2.30;99.90
10536;DHT22;5316;49.538;8.352;2023-12-07T08:54:31;2.40;99.90
10536;DHT22;5316;49.538;8.352;2023-12-07T08:56:57;2.40;99.90
10536;DHT22;5316;49.538;8.352;2023-12-07T08:59:24;2.40;99.90
10536;DHT22;5316;49.538;8.352;2023-12-07T09:01:51;2.30;99.90
10536;DHT22;5316;49.538;8.352;2023-12-07T09:04:18;2.40;99.90
10536;DHT22;5316;49.538;8.352;2023-12-07T09:06:44;3.40;99.90
10536;DHT22;5316;49.538;8.352;2023-12-07T09:09:12;2.50;99.90
10536;DHT22;5316;49.538;8.352;2023-12-07T09:11:40;2.50;99.90
10536;DHT22;5316;49.538;8.352;2023-12-07T09:14:07;2.50;99.90
10536;DHT22;5316;49.538;8.352;2023-12-07T09:16:34;2.60;99.90
10536;DHT22;5316;49.538;8.352;2023-12-07T09:19:01;2.60;99.90
10536;DHT22;5316;49.538;8.352;2023-12-07T09:21:28;2.60;99.90
10536;DHT22;5316;49.538;8.352;2023-12-07T09:23:56;2.60;99.90
10536;DHT22;5316;49.538;8.352;2023-12-07T09:26:22;2.60;99.90
10536;DHT22;5316;49.538;8.352;2023-12-07T09:28:50;2.60;99.90
10536;DHT22;5316;49.538;8.352;2023-12-07T09:31:17;2.60;99.90
10536;DHT22;5316;49.538;8.352;2023-12-07T09:33:44;3.30;99.90
10536;DHT22;5316;49.538;8.352;2023-12-07T09:36:16;3.60;99.90
10536;DHT22;5316;49.538;8.352;2023-12-07T09:38:43;2.30;99.90
10536;DHT22;5316;49.538;8.352;2023-12-07T09:41:10;2.20;99.90
10536;DHT22;5316;49.538;8.352;2023-12-07T09:43:37;2.20;99.90
10536;DHT22;5316;49.538;8.352;2023-12-07T09:46:05;2.10;99.90
10536;DHT22;5316;49.538;8.352;2023-12-07T09:48:32;2.10;99.90
10536;DHT22;5316;49.538;8.352;2023-12-07T09:51:00;2.00;99.90
10536;DHT22;5316;49.538;8.352;2023-12-07T09:53:29;2.00;99.90
10536;DHT22;5316;49.538;8.352;2023-12-07T09:55:55;1.90;99.90
10536;DHT22;5316;49.538;8.352;2023-12-07T09:58:22;2.00;99.90
10536;DHT22;5316;49.538;8.352;2023-12-07T10:00:49;2.00;99.90
10536;DHT22;5316;49.538;8.352;2023-12-07T10:03:26;2.00;99.90
10536;DHT22;5316;49.538;8.352;2023-12-07T10:05:54;2.00;99.90
10536;DHT22;5316;49.538;8.352;2023-12-07T10:08:29;2.00;99.90
10536;DHT22;5316;49.538;8.352;2023-12-07T10:11:03;2.10;99.90
10536;DHT22;5316;49.538;8.352;2023-12-07T10:13:31;2.10;99.90
10536;DHT22;5316;49.538;8.352;2023-12-07T10:16:09;2.40;99.90
10536;DHT22;5316;49.538;8.352;2023-12-07T10:18:37;2.20;99.90
10536;DHT22;5316;49.538;8.352;2023-12-07T10:21:06;2.20;99.90
10536;DHT22;5316;49.538;8.352;2023-12-07T10:23:33;2.20;99.90
10536;DHT22;5316;49.538;8.352;2023-12-07T10:26:00;2.30;99.90
10536;DHT22;5316;49.538;8.352;2023-12-07T10:28:27;2.30;99.90
10536;DHT22;5316;49.538;8.352;2023-12-07T10:30:53;2.30;99.90
10536;DHT22;5316;49.538;8.352;2023-12-07T10:33:20;2.30;99.90
10536;DHT22;5316;49.538;8.352;2023-12-07T10:35:48;2.20;99.90
10536;DHT22;5316;49.538;8.352;2023-12-07T10:38:15;2.20;99.90
10536;DHT22;5316;49.538;8.352;2023-12-07T10:40:43;2.30;99.90
10536;DHT22;5316;49.538;8.352;2023-12-07T10:43:11;2.30;99.90
10536;DHT22;5316;49.538;8.352;2023-12-07T10:45:39;2.40;99.90
10536;DHT22;5316;49.538;8.352;2023-12-07T10:48:09;2.50;99.90
10536;DHT22;5316;49.538;8.352;2023-12-07T10:50:37;2.50;99.90
10536;DHT22;5316;49.538;8.352;2023-12-07T10:53:14;2.60;99.90
10536;DHT22;5316;49.538;8.352;2023-12-07T10:55:47;2.60;99.90
10536;DHT22;5316;49.538;8.352;2023-12-07T10:58:17;2.60;99.90
10536;DHT22;5316;49.538;8.352;2023-12-07T11:00:44;2.70;99.90
10536;DHT22;5316;49.538;8.352;2023-12-07T11:03:14;2.70;99.90
10536;DHT22;5316;49.538;8.352;2023-12-07T11:05:42;2.70;99.90
10536;DHT22;5316;49.538;8.352;2023-12-07T11:08:17;2.80;99.90
10536;DHT22;5316;49.538;8.352;2023-12-07T11:10:48;2.80;99.90
10536;DHT22;5316;49.538;8.352;2023-12-07T11:13:20;2.90;99.90
10536;DHT22;5316;49.538;8.352;2023-12-07T11:15:49;2.90;99.90
10536;DHT22;5316;49.538;8.352;2023-12-07T11:18:16;2.90;99.90
10536;DHT22;5316;49.538;8.352;2023-12-07T11:20:44;2.90;99.90
10536;DHT22;5316;49.538;8.352;2023-12-07T11:23:16;3.00;99.90
10536;DHT22;5316;49.538;8.352;2023-12-07T11:25:45;3.10;99.90
10536;DHT22;5316;49.538;8.352;2023-12-07T11:28:12;3.10;99.90
10536;DHT22;5316;49.538;8.352;2023-12-07T11:30:42;4.10;99.90
10536;DHT22;5316;49.538;8.352;2023-12-07T11:33:10;3.30;99.90
10536;DHT22;5316;49.538;8.352;2023-12-07T11:36:05;3.30;99.90
10536;DHT22;5316;49.538;8.352;2023-12-07T11:38:35;3.30;99.90
10536;DHT22;5316;49.538;8.352;2023-12-07T11:41:02;3.20;99.90
10536;DHT22;5316;49.538;8.352;2023-12-07T11:43:41;3.20;99.90
10536;DHT22;5316;49.538;8.352;2023-12-07T11:46:12;3.10;99.90
10536;DHT22;5316;49.538;8.352;2023-12-07T11:48:46;3.10;99.90
10536;DHT22;5316;49.538;8.352;2023-12-07T11:51:14;3.10;99.90
10536;DHT22;5316;49.538;8.352;2023-12-07T11:53:42;3.10;99.90
10536;DHT22;5316;49.538;8.352;2023-12-07T11:56:10;3.10;99.90
10536;DHT22;5316;49.538;8.352;2023-12-07T11:58:38;3.30;99.90
10536;DHT22;5316;49.538;8.352;2023-12-07T12:01:06;3.30;99.90
10536;DHT22;5316;49.538;8.352;2023-12-07T12:03:33;3.30;99.90
10536;DHT22;5316;49.538;8.352;2023-12-07T12:06:05;3.30;99.90
10536;DHT22;5316;49.538;8.352;2023-12-07T12:08:33;3.40;99.90
10536;DHT22;5316;49.538;8.352;2023-12-07T12:11:02;3.30;99.90
10536;DHT22;5316;49.538;8.352;2023-12-07T12:13:29;3.30;99.90
10536;DHT22;5316;49.538;8.352;2023-12-07T12:15:56;3.20;99.90
10536;DHT22;5316;49.538;8.352;2023-12-07T12:18:23;3.00;99.90
10536;DHT22;5316;49.538;8.352;2023-12-07T12:20:51;2.90;99.90
10536;DHT22;5316;49.538;8.352;2023-12-07T12:23:18;2.80;99.90
10536;DHT22;5316;49.538;8.352;2023-12-07T12:25:45;2.70;99.90
10536;DHT22;5316;49.538;8.352;2023-12-07T12:28:15;2.70;99.90
10536;DHT22;5316;49.538;8.352;2023-12-07T12:30:43;2.60;99.90
10536;DHT22;5316;49.538;8.352;2023-12-07T12:33:12;2.40;99.90
10536;DHT22;5316;49.538;8.352;2023-12-07T12:35:39;2.40;99.90
10536;DHT22;5316;49.538;8.352;2023-12-07T12:38:09;2.30;99.90
10536;DHT22;5316;49.538;8.352;2023-12-07T12:40:36;2.30;99.90
10536;DHT22;5316;49.538;8.352;2023-12-07T12:43:03;2.20;99.90
10536;DHT22;5316;49.538;8.352;2023-12-07T12:45:33;2.20;99.90
10536;DHT22;5316;49.538;8.352;2023-12-07T12:48:00;2.30;99.90
10536;DHT22;5316;49.538;8.352;2023-12-07T12:50:34;2.30;99.90
10536;DHT22;5316;49.538;8.352;2023-12-07T12:53:03;2.30;99.90
10536;DHT22;5316;49.538;8.352;2023-12-07T12:55:31;2.30;99.90
10536;DHT22;5316;49.538;8.352;2023-12-07T12:57:58;2.30;99.90
10536;DHT22;5316;49.538;8.352;2023-12-07T13:00:25;2.30;99.90
10536;DHT22;5316;49.538;8.352;2023-12-07T13:02:54;2.40;99.90
10536;DHT22;5316;49.538;8.352;2023-12-07T13:05:20;2.40;99.90
10536;DHT22;5316;49.538;8.352;2023-12-07T13:07:48;2.50;99.90
10536;DHT22;5316;49.538;8.352;2023-12-07T13:10:15;2.40;99.90
10536;DHT22;5316;49.538;8.352;2023-12-07T13:12:42;2.40;99.90
10536;DHT22;5316;49.538;8.352;2023-12-07T13:15:09;2.40;99.90
10536;DHT22;5316;49.538;8.352;2023-12-07T13:17:38;2.40;99.90
10536;DHT22;5316;49.538;8.352;2023-12-07T13:20:07;2.40;99.90
10536;DHT22;5316;49.538;8.352;2023-12-07T13:22:35;2.40;99.90
10536;DHT22;5316;49.538;8.352;2023-12-07T13:25:03;2.30;99.90
10536;DHT22;5316;49.538;8.352;2023-12-07T13:27:31;2.20;99.90
10536;DHT22;5316;49.538;8.352;2023-12-07T13:29:58;2.10;99.90
10536;DHT22;5316;49.538;8.352;2023-12-07T13:32:25;2.10;99.90
10536;DHT22;5316;49.538;8.352;2023-12-07T13:34:51;2.10;99.90
10536;DHT22;5316;49.538;8.352;2023-12-07T13:37:20;2.10;99.90
10536;DHT22;5316;49.538;8.352;2023-12-07T13:39:47;2.10;99.90
10536;DHT22;5316;49.538;8.352;2023-12-07T13:42:18;2.10;99.90
10536;DHT22;5316;49.538;8.352;2023-12-07T13:44:45;2.10;99.90
10536;DHT22;5316;49.538;8.352;2023-12-07T13:47:12;2.20;99.90
10536;DHT22;5316;49.538;8.352;2023-12-07T13:49:39;2.20;99.90
10536;DHT22;5316;49.538;8.352;2023-12-07T13:52:06;2.20;99.90
10536;DHT22;5316;49.538;8.352;2023-12-07T13:54:35;2.20;99.90
10536;DHT22;5316;49.538;8.352;2023-12-07T13:57:02;2.20;99.90
10536;DHT22;5316;49.538;8.352;2023-12-07T13:59:29;2.20;99.90
10536;DHT22;5316;49.538;8.352;2023-12-07T14:01:56;2.20;99.90
10536;DHT22;5316;49.538;8.352;2023-12-07T14:04:23;3.10;99.90
10536;DHT22;5316;49.538;8.352;2023-12-07T14:06:49;2.90;99.90
10536;DHT22;5316;49.538;8.352;2023-12-07T14:09:16;2.30;99.90
10536;DHT22;5316;49.538;8.352;2023-12-07T14:11:45;2.40;99.90
10536;DHT22;5316;49.538;8.352;2023-12-07T14:14:10;2.30;99.90
10536;DHT22;5316;49.538;8.352;2023-12-07T14:16:38;2.40;99.90
10536;DHT22;5316;49.538;8.352;2023-12-07T14:19:05;2.40;99.90
10536;DHT22;5316;49.538;8.352;2023-12-07T14:21:32;2.40;99.90
10536;DHT22;5316;49.538;8.352;2023-12-07T14:23:58;2.50;99.90
10536;DHT22;5316;49.538;8.352;2023-12-07T14:26:25;2.50;99.90
10536;DHT22;5316;49.538;8.352;2023-12-07T14:28:57;2.40;99.90
10536;DHT22;5316;49.538;8.352;2023-12-07T14:31:24;2.40;99.90
10536;DHT22;5316;49.538;8.352;2023-12-07T14:33:55;2.50;99.90
10536;DHT22;5316;49.538;8.352;2023-12-07T14:36:24;2.50;99.90
10536;DHT22;5316;49.538;8.352;2023-12-07T14:38:54;2.50;99.90
10536;DHT22;5316;49.538;8.352;2023-12-07T14:41:22;2.50;99.90
10536;DHT22;5316;49.538;8.352;2023-12-07T14:43:52;2.60;99.90
10536;DHT22;5316;49.538;8.352;2023-12-07T14:46:37;2.50;99.90
10536;DHT22;5316;49.538;8.352;2023-12-07T14:49:07;2.70;99.90
10536;DHT22;5316;49.538;8.352;2023-12-07T14:51:39;2.50;99.90
10536;DHT22;5316;49.538;8.352;2023-12-07T14:54:11;2.50;99.90
10536;DHT22;5316;49.538;8.352;2023-12-07T14:56:40;2.40;99.90
10536;DHT22;5316;49.538;8.352;2023-12-07T14:59:08;2.50;99.90
10536;DHT22;5316;49.538;8.352;2023-12-07T15:01:41;2.50;99.90
10536;DHT22;5316;49.538;8.352;2023-12-07T15:04:17;2.40;99.90
10536;DHT22;5316;49.538;8.352;2023-12-07T15:06:46;2.40;99.90
10536;DHT22;5316;49.538;8.352;2023-12-07T15:09:16;2.40;99.90
10536;DHT22;5316;49.538;8.352;2023-12-07T15:11:46;2.40;99.90
10536;DHT22;5316;49.538;8.352;2023-12-07T15:14:16;2.40;99.90
10536;DHT22;5316;49.538;8.352;2023-12-07T15:16:51;2.40;99.90
10536;DHT22;5316;49.538;8.352;2023-12-07T15:36:14;2.20;99.90
10536;DHT22;5316;49.538;8.352;2023-12-07T15:38:45;2.30;99.90
10536;DHT22;5316;49.538;8.352;2023-12-07T15:41:13;2.30;99.90
10536;DHT22;5316;49.538;8.352;2023-12-07T15:43:41;2.20;99.90
10536;DHT22;5316;49.538;8.352;2023-12-07T15:46:11;2.20;99.90
10536;DHT22;5316;49.538;8.352;2023-12-07T15:48:40;2.20;99.90
10536;DHT22;5316;49.538;8.352;2023-12-07T15:51:09;2.20;99.90
10536;DHT22;5316;49.538;8.352;2023-12-07T15:53:45;2.10;99.90
10536;DHT22;5316;49.538;8.352;2023-12-07T15:56:14;2.10;99.90
10536;DHT22;5316;49.538;8.352;2023-12-07T15:58:53;2.20;99.90
10536;DHT22;5316;49.538;8.352;2023-12-07T16:01:24;2.50;99.90
10536;DHT22;5316;49.538;8.352;2023-12-07T16:03:51;3.00;99.90
10536;DHT22;5316;49.538;8.352;2023-12-07T16:06:18;2.10;99.90
10536;DHT22;5316;49.538;8.352;2023-12-07T16:08:48;2.10;99.90
10536;DHT22;5316;49.538;8.352;2023-12-07T16:11:16;2.10;99.90
10536;DHT22;5316;49.538;8.352;2023-12-07T16:13:43;2.00;99.90
10536;DHT22;5316;49.538;8.352;2023-12-07T16:16:11;2.00;99.90
10536;DHT22;5316;49.538;8.352;2023-12-07T16:18:39;1.90;99.90
10536;DHT22;5316;49.538;8.352;2023-12-07T16:21:06;1.90;99.90
10536;DHT22;5316;49.538;8.352;2023-12-07T16:23:34;1.90;99.90
10536;DHT22;5316;49.538;8.352;2023-12-07T16:26:03;2.00;99.90
10536;DHT22;5316;49.538;8.352;2023-12-07T16:28:30;2.10;99.90
10536;DHT22;5316;49.538;8.352;2023-12-07T16:30:57;2.00;99.90
10536;DHT22;5316;49.538;8.352;2023-12-07T16:33:25;2.50;99.90
10536;DHT22;5316;49.538;8.352;2023-12-07T16:35:52;2.00;99.90
10536;DHT22;5316;49.538;8.352;2023-12-07T16:38:20;2.00;99.90
10536;DHT22;5316;49.538;8.352;2023-12-07T16:40:47;1.90;99.90
10536;DHT22;5316;49.538;8.352;2023-12-07T16:43:16;1.90;99.90
10536;DHT22;5316;49.538;8.352;2023-12-07T16:45:43;1.80;99.90
10536;DHT22;5316;49.538;8.352;2023-12-07T16:48:35;1.90;99.90
10536;DHT22;5316;49.538;8.352;2023-12-07T16:51:23;1.80;99.90
10536;DHT22;5316;49.538;8.352;2023-12-07T16:53:51;1.80;99.90
10536;DHT22;5316;49.538;8.352;2023-12-07T16:56:18;1.80;99.90
10536;DHT22;5316;49.538;8.352;2023-12-07T16:58:55;1.80;99.90
10536;DHT22;5316;49.538;8.352;2023-12-07T17:01:22;1.70;99.90